KBCB/BCB METAR and TAF weather

Enter ICAO airport designator
Station Type Date Time Source
KBCB METAR 2020/12/05 05:35 UTC NOAA

KBCB 050535Z AUTO 30004KT 10SM -DZ OVC021 06/06 A2979 RMK AO2 T00620062


Station Type Date Time Source
KBCB Decoded METAR 2020/12/05 05:35 UTC NOAA

Virginia Tech Airport, VA, United States (KBCB) 37-13N 080-25W
Dec 05, 2020 - 12:35 AM EST / 2020.12.05 0535 UTC
Wind: from the WNW (300 degrees) at 5 MPH (4 KT):0
Visibility: 10 mile(s):0
Sky conditions: overcast
Weather: light drizzle
Temperature: 43.2 F (6.2 C)
Dew Point: 43.2 F (6.2 C)
Relative Humidity: 100%
Pressure (altimeter): 29.79 in. Hg (1008 hPa)
ob: KBCB 050535Z AUTO 30004KT 10SM -DZ OVC021 06/06 A2979 RMK AO2 T00620062
cycle: 5

Station Type Date Time Source
KBCB TAF 2020/12/05 06:42 UTC NOAA

TAF KBCB 050539Z 0506/0606 04008KT 5SM -SHRA BR OVC020
TEMPO 0506/0508 4SM -SHRA BR SCT007 BKN012
FM050800 30014G28KT P6SM VCSH BKN025
FM051800 30012G24KT P6SM SCT035
FM060000 30008KT P6SM SCT035

Example: see airport list